createdAt,value
2023-02-19T00:00:02.552Z,12.65
2023-02-19T00:05:04.473Z,13.13
2023-02-19T00:10:06.465Z,12.38
2023-02-19T00:15:08.104Z,11.88
2023-02-19T00:20:10.039Z,13.15
2023-02-19T00:25:11.644Z,12.18
2023-02-19T00:30:13.665Z,12.73
2023-02-19T00:35:15.396Z,13.80
2023-02-19T00:40:17.276Z,12.82
2023-02-19T00:45:19.238Z,14.25
2023-02-19T00:50:20.901Z,13.45
2023-02-19T00:55:22.604Z,13.68
2023-02-19T01:00:24.311Z,13.35
2023-02-19T01:05:25.999Z,13.55
2023-02-19T01:10:27.738Z,13.07
2023-02-19T01:15:29.359Z,13.63
2023-02-19T01:20:31.369Z,12.77
2023-02-19T01:25:33.065Z,12.43
2023-02-19T01:30:37.573Z,12.52
2023-02-19T01:35:39.856Z,12.15
2023-02-19T01:40:41.565Z,11.27
2023-02-19T01:45:46.643Z,11.63
2023-02-19T01:50:52.816Z,11.02
2023-02-19T01:55:58.815Z,12.27
2023-02-19T02:01:03.119Z,12.52
2023-02-19T02:06:08.116Z,11.45
2023-02-19T02:11:10.153Z,11.95
2023-02-19T02:16:30.139Z,11.48
2023-02-19T02:22:01.791Z,12.52
2023-02-19T02:27:35.715Z,13.88
2023-02-19T02:32:57.465Z,13.10
2023-02-19T02:38:03.090Z,13.48
2023-02-19T02:43:04.769Z,12.07
2023-02-19T02:48:43.534Z,13.13
2023-02-19T02:54:09.931Z,12.00
2023-02-19T02:59:13.756Z,11.90
2023-02-19T03:04:30.129Z,11.15
2023-02-19T03:09:43.173Z,11.25
2023-02-19T03:15:09.597Z,11.52
2023-02-19T03:20:16.126Z,12.63
2023-02-19T03:25:40.559Z,11.07
2023-02-19T03:30:47.249Z,11.27
2023-02-19T03:41:31.225Z,11.02
2023-02-19T03:47:05.586Z,10.75
2023-02-19T03:52:16.627Z,11.75
2023-02-19T03:57:24.087Z,11.02
2023-02-19T04:02:38.251Z,11.10
2023-02-19T04:07:45.710Z,10.45
2023-02-19T04:13:11.539Z,11.20
2023-02-19T04:18:17.916Z,10.85
2023-02-19T04:23:24.080Z,11.68
2023-02-19T04:28:25.949Z,13.02
2023-02-19T04:33:27.680Z,11.93
2023-02-19T04:38:29.376Z,10.80
2023-02-19T04:43:31.061Z,10.88
2023-02-19T04:48:32.744Z,10.50
2023-02-19T04:53:35.015Z,9.73
2023-02-19T04:58:36.994Z,10.40
2023-02-19T05:03:39.077Z,10.05
2023-02-19T05:08:50.608Z,10.30
2023-02-19T05:13:52.310Z,10.63
2023-02-19T05:18:54.238Z,10.40
2023-02-19T05:23:55.952Z,11.30
2023-02-19T05:28:57.678Z,11.10
2023-02-19T05:33:59.891Z,12.07
2023-02-19T05:39:01.580Z,11.73
2023-02-19T05:44:03.218Z,11.80
2023-02-19T05:49:04.910Z,10.98
2023-02-19T05:54:07.696Z,10.90
2023-02-19T05:59:21.255Z,11.23
2023-02-19T06:04:23.583Z,11.55
2023-02-19T06:09:25.295Z,11.57
2023-02-19T06:14:27.045Z,10.88
2023-02-19T06:19:28.673Z,10.90
2023-02-19T06:24:30.652Z,11.48
2023-02-19T06:29:32.855Z,11.65
2023-02-19T06:34:35.166Z,11.35
2023-02-19T06:39:37.072Z,11.23
2023-02-19T06:44:38.750Z,12.50
2023-02-19T06:49:40.803Z,10.90
2023-02-19T06:54:42.525Z,10.73
2023-02-19T06:59:44.635Z,12.35
2023-02-19T07:04:46.314Z,11.18
2023-02-19T07:09:48.050Z,11.05
2023-02-19T07:14:49.736Z,10.88
2023-02-19T07:19:51.341Z,10.50
2023-02-19T07:24:53.009Z,10.50
2023-02-19T07:29:54.690Z,12.88
2023-02-19T07:34:56.326Z,12.77
2023-02-19T07:39:58.005Z,13.90
2023-02-19T07:45:00.659Z,13.40
2023-02-19T07:50:02.457Z,12.35
2023-02-19T07:55:04.325Z,12.55
2023-02-19T08:00:06.513Z,12.35
2023-02-19T08:05:08.252Z,11.07
2023-02-19T08:10:28.455Z,12.85
2023-02-19T08:15:30.628Z,12.55
2023-02-19T08:20:32.330Z,13.93
2023-02-19T08:25:34.395Z,13.23
2023-02-19T08:30:38.431Z,13.25
2023-02-19T08:35:42.986Z,14.85
2023-02-19T08:40:44.642Z,15.27
2023-02-19T08:45:47.648Z,14.35
2023-02-19T08:50:57.594Z,14.38
2023-02-19T08:55:59.660Z,14.02
2023-02-19T09:01:01.333Z,13.60
2023-02-19T09:06:03.289Z,13.70
2023-02-19T09:11:07.194Z,12.82
2023-02-19T09:16:09.971Z,13.60
2023-02-19T09:21:11.912Z,12.65
2023-02-19T09:26:14.147Z,14.98
2023-02-19T09:31:17.059Z,15.52
2023-02-19T09:36:19.595Z,15.48
2023-02-19T09:41:47.437Z,14.75
2023-02-19T09:46:51.823Z,14.38
2023-02-19T09:52:12.334Z,13.70
2023-02-19T09:57:16.652Z,13.75
2023-02-19T10:02:25.797Z,12.07
2023-02-19T10:07:38.493Z,13.95
2023-02-19T10:12:46.151Z,14.23
2023-02-19T10:17:47.971Z,14.32
2023-02-19T10:22:49.902Z,14.35
2023-02-19T10:27:51.573Z,13.85
2023-02-19T10:33:14.618Z,16.15
2023-02-19T10:38:17.756Z,15.13
2023-02-19T10:43:32.060Z,15.38
2023-02-19T10:48:47.778Z,15.00
2023-02-19T10:53:52.206Z,12.90
2023-02-19T10:58:54.111Z,12.93
2023-02-19T11:04:17.714Z,12.35
2023-02-19T11:09:31.657Z,11.13
2023-02-19T11:14:35.111Z,11.75
2023-02-19T11:19:49.085Z,10.93
2023-02-19T11:24:55.892Z,11.82
2023-02-19T11:30:26.866Z,11.98
2023-02-19T11:35:31.500Z,11.70
2023-02-19T11:40:45.360Z,11.77
2023-02-19T11:46:03.775Z,12.60
2023-02-19T11:51:31.893Z,10.65
2023-02-19T11:56:37.287Z,10.63
2023-02-19T12:01:55.788Z,10.40
2023-02-19T12:07:35.110Z,10.35
2023-02-19T12:12:56.244Z,10.10
2023-02-19T12:18:26.862Z,9.48
2023-02-19T12:24:06.804Z,8.30
2023-02-19T12:29:22.033Z,9.13
2023-02-19T12:34:51.195Z,8.52
2023-02-19T12:39:59.234Z,8.40
2023-02-19T12:45:15.635Z,7.80
2023-02-19T12:50:24.003Z,7.85
2023-02-19T12:55:41.299Z,7.63
2023-02-19T13:00:50.588Z,5.85
2023-02-19T13:06:00.925Z,1.98
2023-02-19T13:11:09.574Z,0.70
2023-02-19T13:16:18.735Z,0.52
2023-02-19T13:21:43.378Z,1.10
2023-02-19T13:27:09.084Z,0.30
2023-02-19T13:32:27.774Z,0.05
2023-02-19T13:37:34.721Z,0.10
2023-02-19T13:42:37.462Z,0.10
2023-02-19T13:47:54.518Z,0.05
2023-02-19T13:53:02.105Z,0.00
2023-02-19T13:58:52.292Z,0.10
2023-02-19T14:04:07.277Z,0.30
2023-02-19T14:09:35.561Z,0.10
2023-02-19T14:14:39.548Z,0.20
2023-02-19T14:19:51.914Z,0.10
2023-02-19T14:24:55.218Z,0.20
2023-02-19T14:29:59.745Z,0.10
2023-02-19T14:35:02.096Z,0.10
2023-02-19T14:40:05.981Z,0.10
2023-02-19T14:45:09.027Z,0.20
2023-02-19T14:50:26.715Z,0.08
2023-02-19T14:55:40.040Z,0.30
2023-02-19T15:00:43.630Z,0.10
2023-02-19T15:05:47.748Z,0.05
2023-02-19T15:10:50.064Z,0.00
2023-02-19T15:15:53.618Z,0.10
2023-02-19T15:21:05.232Z,0.20
2023-02-19T15:26:22.942Z,0.20
2023-02-19T15:31:25.474Z,0.10
2023-02-19T15:36:35.107Z,0.10
2023-02-19T15:41:37.819Z,0.00
2023-02-19T15:46:43.761Z,0.05
2023-02-19T15:51:58.178Z,0.20
2023-02-19T15:57:06.562Z,0.20
2023-02-19T16:02:16.170Z,0.20
2023-02-19T16:07:32.672Z,0.82
2023-02-19T16:12:35.386Z,0.10
2023-02-19T16:17:42.879Z,0.10
2023-02-19T16:22:45.356Z,0.15
2023-02-19T16:27:47.746Z,0.40
2023-02-19T16:33:28.921Z,0.40
2023-02-19T16:38:31.478Z,0.20
2023-02-19T16:43:42.192Z,0.13
2023-02-19T16:48:46.017Z,0.10
2023-02-19T16:53:48.694Z,0.10
2023-02-19T16:58:52.482Z,0.10
2023-02-19T17:04:01.877Z,0.10
2023-02-19T17:09:06.484Z,0.10
2023-02-19T17:14:09.898Z,0.20
2023-02-19T17:19:21.915Z,0.20
2023-02-19T17:24:25.302Z,0.20
2023-02-19T17:29:29.124Z,0.30
2023-02-19T17:34:31.831Z,0.57
2023-02-19T17:39:34.312Z,0.55
2023-02-19T17:44:36.581Z,0.60
2023-02-19T17:49:40.029Z,0.60
2023-02-19T17:54:43.558Z,0.73
2023-02-19T17:59:47.324Z,0.73
2023-02-19T18:04:50.031Z,0.30
2023-02-19T18:09:52.616Z,0.03
2023-02-19T18:14:56.782Z,0.10
2023-02-19T18:20:01.902Z,0.00
2023-02-19T18:25:08.807Z,0.05
2023-02-19T18:30:13.035Z,0.00
2023-02-19T18:35:17.513Z,0.10
2023-02-19T18:40:28.030Z,0.10
2023-02-19T18:45:41.179Z,0.00
2023-02-19T18:50:44.881Z,0.05
2023-02-19T18:55:47.612Z,0.10
2023-02-19T19:00:50.267Z,0.10
2023-02-19T19:05:53.245Z,0.10
2023-02-19T19:10:56.758Z,0.10
2023-02-19T19:16:00.104Z,0.20
2023-02-19T19:21:05.304Z,0.40
2023-02-19T19:26:08.353Z,0.88
2023-02-19T19:31:13.204Z,0.50
2023-02-19T19:36:21.228Z,0.60
2023-02-19T19:41:24.223Z,0.60
2023-02-19T19:46:27.678Z,0.82
2023-02-19T19:51:34.723Z,1.40
2023-02-19T19:56:47.140Z,1.95
2023-02-19T20:01:54.711Z,2.28
2023-02-19T20:07:01.490Z,2.10
2023-02-19T20:12:05.201Z,1.70
2023-02-19T20:17:10.187Z,1.85
2023-02-19T20:22:14.301Z,2.00
2023-02-19T20:27:17.344Z,1.70
2023-02-19T20:32:21.252Z,1.42
2023-02-19T20:37:23.545Z,1.45
2023-02-19T20:42:26.138Z,1.40
2023-02-19T20:47:28.579Z,1.10
2023-02-19T20:52:31.285Z,1.25
2023-02-19T20:57:33.794Z,2.35
2023-02-19T21:02:37.055Z,2.13
2023-02-19T21:07:40.009Z,1.90
2023-02-19T21:12:42.243Z,1.92
2023-02-19T21:17:48.064Z,2.10
2023-02-19T21:22:50.556Z,3.00
2023-02-19T21:27:54.308Z,2.90
2023-02-19T21:32:56.198Z,2.95
2023-02-19T21:37:58.123Z,2.97
2023-02-19T21:43:00.630Z,2.33
2023-02-19T21:48:03.072Z,2.38
2023-02-19T21:53:05.764Z,2.65
2023-02-19T21:58:08.253Z,2.63
2023-02-19T22:03:15.559Z,2.25
2023-02-19T22:08:17.573Z,2.45
2023-02-19T22:13:19.195Z,2.22
2023-02-19T22:18:20.857Z,2.20
2023-02-19T22:23:22.542Z,2.13
2023-02-19T22:28:24.730Z,2.80
2023-02-19T22:33:26.373Z,2.55
2023-02-19T22:38:27.940Z,2.33
2023-02-19T22:43:29.568Z,2.05
2023-02-19T22:48:31.490Z,2.15
2023-02-19T22:53:33.184Z,2.65
2023-02-19T22:58:34.826Z,2.03
2023-02-19T23:03:45.933Z,1.77
2023-02-19T23:08:47.682Z,2.00
2023-02-19T23:13:49.509Z,1.63
2023-02-19T23:18:51.472Z,1.70
2023-02-19T23:23:53.359Z,1.80
2023-02-19T23:28:54.998Z,2.15
2023-02-19T23:33:56.709Z,4.70
2023-02-19T23:38:58.398Z,6.10
2023-02-19T23:44:00.019Z,4.28
2023-02-19T23:49:01.648Z,5.07
2023-02-19T23:54:03.511Z,3.97
2023-02-19T23:59:05.956Z,3.80
